Time;durP1;ratioP1;P1;durP2;ratioP2;P2;SDS_P1;SDS_P2;PMS_P1;PMS_P2;Temp;Humidity;BMP_temperature;BMP_pressure;BME280_temperature;BME280_humidity;BME280_pressure;Samples;Min_cycle;Max_cycle;Signal;HPM_P1;HPM_P2
2023/02/21 02:15:42;;;;;;;30.58;21.52;;;9.50;99.90;;;;;;5014134;28;20028;-78
2023/02/21 02:18:13;;;;;;;31.52;22.02;;;9.60;99.90;;;;;;5017667;28;20529;-78
2023/02/21 02:21:10;;;;;;;32.15;21.70;;;9.70;99.90;;;;;;5012902;28;20049;-78
2023/02/21 02:23:42;;;;;;;35.10;22.10;;;9.60;99.90;;;;;;5016073;28;21107;-76
2023/02/21 02:26:28;;;;;;;35.25;22.60;;;9.70;99.90;;;;;;5005972;28;20042;-77
2023/02/21 02:29:31;;;;;;;35.58;24.08;;;9.70;99.90;;;;;;5014717;28;20061;-77
2023/02/21 02:32:08;;;;;;;29.77;22.20;;;9.70;99.90;;;;;;5011837;28;20049;-77
2023/02/21 02:34:37;;;;;;;36.75;22.95;;;9.70;99.90;;;;;;4998651;28;20053;-78
2023/02/21 02:37:31;;;;;;;30.35;21.88;;;9.70;99.90;;;;;;5012967;28;20046;-78
2023/02/21 02:40:42;;;;;;;35.45;23.38;;;9.70;99.90;;;;;;5017614;28;20068;-77
2023/02/21 02:43:17;;;;;;;32.63;22.48;;;9.70;99.90;;;;;;5018200;28;20408;-77
2023/02/21 02:45:52;;;;;;;31.55;22.70;;;9.70;99.90;;;;;;5004969;28;20053;-77
2023/02/21 02:48:25;;;;;;;34.53;23.02;;;9.70;99.90;;;;;;5011361;28;20397;-75
2023/02/21 02:50:52;;;;;;;33.15;24.15;;;9.60;99.90;;;;;;4995925;28;20063;-75
2023/02/21 02:53:25;;;;;;;36.97;24.20;;;9.70;99.90;;;;;;4985445;28;20164;-76
2023/02/21 02:55:56;;;;;;;34.08;24.08;;;9.70;99.90;;;;;;5016411;28;20049;-75
2023/02/21 02:58:25;;;;;;;35.28;23.70;;;9.70;99.90;;;;;;5013843;28;20476;-71
2023/02/21 03:01:18;;;;;;;34.17;23.40;;;9.70;99.90;;;;;;5021404;28;20052;-71
2023/02/21 03:04:00;;;;;;;33.47;24.77;;;9.70;99.90;;;;;;4997904;28;20053;-71
2023/02/21 03:06:32;;;;;;;32.60;23.85;;;9.70;99.90;;;;;;5026385;28;20469;-71
2023/02/21 03:09:10;;;;;;;34.70;23.77;;;9.60;99.90;;;;;;5019019;28;20484;-71
2023/02/21 03:11:49;;;;;;;32.17;23.88;;;9.60;99.90;;;;;;5026066;28;20060;-71
2023/02/21 03:14:18;;;;;;;34.47;23.77;;;9.60;99.90;;;;;;5009906;28;20064;-71
2023/02/21 03:16:50;;;;;;;34.70;24.40;;;9.60;99.90;;;;;;5019234;28;20807;-71
2023/02/21 03:19:23;;;;;;;31.20;23.25;;;9.70;99.90;;;;;;5027126;28;20057;-72
2023/02/21 03:21:55;;;;;;;36.22;24.58;;;9.70;99.90;;;;;;5023700;28;20045;-71
2023/02/21 03:24:24;;;;;;;32.92;23.80;;;9.70;99.90;;;;;;5019708;28;20524;-72
2023/02/21 03:26:58;;;;;;;;;;;9.70;99.90;;;;;;5023721;28;20056;-76
2023/02/21 03:29:26;;;;;;;36.47;24.33;;;9.60;99.90;;;;;;5024405;28;19929;-76
2023/02/21 03:34:41;;;;;;;35.65;25.50;;;9.60;99.90;;;;;;5026668;28;20049;-72
2023/02/21 03:37:30;;;;;;;35.13;24.40;;;9.60;99.90;;;;;;5023639;28;20045;-72
2023/02/21 03:39:56;;;;;;;34.42;25.70;;;9.60;99.90;;;;;;5004909;28;20054;-71
2023/02/21 03:42:22;;;;;;;33.38;24.85;;;9.60;99.90;;;;;;5020743;28;20053;-71
2023/02/21 03:44:48;;;;;;;31.35;25.27;;;9.60;99.90;;;;;;5022377;28;20053;-71
2023/02/21 03:47:14;;;;;;;32.60;24.70;;;9.60;99.90;;;;;;5012199;28;20060;-72
2023/02/21 03:49:40;;;;;;;33.85;25.52;;;9.60;99.90;;;;;;5009083;28;20507;-72
2023/02/21 03:52:07;;;;;;;35.10;26.00;;;9.60;99.90;;;;;;4998784;28;20130;-71
2023/02/21 03:54:33;;;;;;;34.88;26.58;;;9.60;99.90;;;;;;5025003;28;20072;-71
2023/02/21 03:56:59;;;;;;;36.47;26.45;;;9.60;99.90;;;;;;5012911;28;20766;-71
2023/02/21 03:59:28;;;;;;;34.83;26.88;;;9.60;99.90;;;;;;5000766;28;20053;-71
2023/02/21 04:01:54;;;;;;;34.83;27.65;;;9.60;99.90;;;;;;4998103;28;20050;-71
2023/02/21 04:04:19;;;;;;;34.80;27.52;;;9.60;99.90;;;;;;5016729;28;20147;-71
2023/02/21 04:06:45;;;;;;;38.58;26.75;;;9.60;99.90;;;;;;5015816;28;20045;-71
2023/02/21 04:09:14;;;;;;;33.50;26.98;;;9.60;99.90;;;;;;5014623;28;20085;-72
2023/02/21 04:11:44;;;;;;;39.70;28.58;;;9.60;99.90;;;;;;5001650;28;20050;-71
2023/02/21 04:14:10;;;;;;;38.33;27.83;;;9.70;99.90;;;;;;4996027;28;20132;-72
2023/02/21 04:16:36;;;;;;;39.83;27.98;;;9.60;99.90;;;;;;5014417;28;20128;-71
2023/02/21 04:19:02;;;;;;;37.58;27.45;;;9.70;99.90;;;;;;4999513;28;20156;-71
2023/02/21 04:21:28;;;;;;;36.08;28.33;;;9.60;99.90;;;;;;5013712;28;20134;-71
2023/02/21 04:23:57;;;;;;;36.47;29.23;;;9.60;99.90;;;;;;4999164;28;20050;-71
2023/02/21 04:26:23;;;;;;;38.92;29.77;;;9.60;99.90;;;;;;5016562;28;20120;-71
2023/02/21 04:28:50;;;;;;;36.75;27.88;;;9.60;99.90;;;;;;4999157;28;20084;-71
2023/02/21 04:31:16;;;;;;;37.83;29.13;;;9.60;99.90;;;;;;5009207;28;20053;-72
2023/02/21 04:33:42;;;;;;;36.08;29.80;;;9.60;99.90;;;;;;5013929;28;20081;-72
2023/02/21 04:36:09;;;;;;;39.08;30.25;;;9.60;99.90;;;;;;5015731;28;20053;-72
2023/02/21 04:38:36;;;;;;;36.70;29.17;;;9.60;99.90;;;;;;4999445;28;20049;-71
2023/02/21 04:41:03;;;;;;;38.05;31.02;;;9.60;99.90;;;;;;5000489;28;20524;-71
2023/02/21 04:43:29;;;;;;;37.78;29.42;;;9.60;99.90;;;;;;5015360;28;20095;-71
2023/02/21 04:45:58;;;;;;;42.03;30.40;;;9.60;99.90;;;;;;5012821;28;20142;-76
2023/02/21 04:48:25;;;;;;;37.28;30.23;;;9.60;99.90;;;;;;5010747;28;20057;-76
2023/02/21 04:50:51;;;;;;;36.70;29.58;;;9.60;99.90;;;;;;5000271;28;20079;-76
2023/02/21 04:53:17;;;;;;;43.72;30.25;;;9.60;99.90;;;;;;5010539;28;20141;-74
2023/02/21 04:55:43;;;;;;;41.88;30.00;;;9.60;99.90;;;;;;5015747;28;20136;-74
2023/02/21 04:58:27;;;;;;;37.33;30.02;;;9.60;99.90;;;;;;4995043;28;20045;-77
2023/02/21 05:00:56;;;;;;;38.42;30.77;;;9.60;99.90;;;;;;5001280;28;20656;-76
2023/02/21 05:03:23;;;;;;;39.75;31.27;;;9.60;99.90;;;;;;5015306;28;20049;-77
2023/02/21 05:05:50;;;;;;;37.85;30.95;;;9.60;99.90;;;;;;4996286;28;20038;-76
2023/02/21 05:08:16;;;;;;;42.38;31.55;;;9.60;99.90;;;;;;5010201;28;20851;-76
2023/02/21 05:10:42;;;;;;;40.75;31.55;;;9.60;99.90;;;;;;5028703;28;20047;-76
2023/02/21 05:13:08;;;;;;;39.65;31.50;;;9.60;99.90;;;;;;5013673;28;20660;-75
2023/02/21 05:15:34;;;;;;;39.50;31.23;;;9.60;99.90;;;;;;4999070;28;20045;-76
2023/02/21 05:18:00;;;;;;;40.85;31.40;;;9.60;99.90;;;;;;5013624;28;20114;-75
2023/02/21 05:20:28;;;;;;;45.03;32.63;;;9.60;99.90;;;;;;5001488;28;20498;-75
2023/02/21 05:22:54;;;;;;;40.22;31.77;;;9.60;99.90;;;;;;5013159;28;20140;-76
2023/02/21 05:25:22;;;;;;;37.22;30.60;;;9.50;99.90;;;;;;5013829;28;20169;-75
2023/02/21 05:27:48;;;;;;;37.25;31.13;;;9.60;99.90;;;;;;5016991;28;20054;-76
2023/02/21 05:30:16;;;;;;;37.72;31.40;;;9.50;99.90;;;;;;5013119;28;20057;-75
2023/02/21 05:32:46;;;;;;;40.60;31.77;;;9.60;99.90;;;;;;5000000;28;20060;-75
2023/02/21 05:35:13;;;;;;;40.83;31.67;;;9.60;99.90;;;;;;4995739;28;20079;-76
2023/02/21 05:37:39;;;;;;;41.20;31.95;;;9.50;99.90;;;;;;5012165;28;20603;-75
2023/02/21 05:40:06;;;;;;;39.28;30.85;;;9.50;99.90;;;;;;5010626;28;20057;-76
2023/02/21 05:42:32;;;;;;;38.50;30.10;;;9.50;99.90;;;;;;5012917;28;20041;-76
2023/02/21 05:44:58;;;;;;;38.33;31.55;;;9.50;99.90;;;;;;5011941;28;20045;-76
2023/02/21 05:47:32;;;;;;;37.47;29.55;;;9.50;99.90;;;;;;4997768;28;20056;-75
2023/02/21 05:49:57;;;;;;;34.90;29.75;;;9.60;99.90;;;;;;5011823;28;20128;-76
2023/02/21 05:52:23;;;;;;;35.63;30.00;;;9.50;99.90;;;;;;5014874;28;20245;-76
2023/02/21 05:54:49;;;;;;;34.38;29.95;;;9.60;99.90;;;;;;4984063;28;20068;-76
2023/02/21 05:57:15;;;;;;;34.90;30.23;;;9.50;99.90;;;;;;4997022;28;21067;-76
2023/02/21 05:59:41;;;;;;;40.22;29.92;;;9.50;99.90;;;;;;4982073;28;20500;-76
2023/02/21 06:02:07;;;;;;;37.00;29.60;;;9.50;99.90;;;;;;4999024;28;20049;-75
2023/02/21 06:04:32;;;;;;;38.58;30.85;;;9.50;99.90;;;;;;5007953;28;20531;-76
2023/02/21 06:06:59;;;;;;;37.65;30.48;;;9.50;99.90;;;;;;5010633;28;20095;-76
2023/02/21 06:09:29;;;;;;;38.65;30.27;;;9.60;99.90;;;;;;5012061;28;20053;-75
2023/02/21 06:11:56;;;;;;;;;;;9.50;99.90;;;;;;5015014;28;20056;-76
2023/02/21 06:14:22;;;;;;;40.97;33.30;;;9.50;99.90;;;;;;5016377;28;21422;-76
2023/02/21 06:16:48;;;;;;;38.35;30.83;;;9.50;99.90;;;;;;5015029;28;20103;-76
2023/02/21 06:19:15;;;;;;;39.58;31.95;;;9.50;99.90;;;;;;5001231;28;20045;-76
2023/02/21 06:21:42;;;;;;;41.45;30.70;;;9.50;99.90;;;;;;5002052;28;20057;-75
2023/02/21 06:24:09;;;;;;;46.03;35.10;;;9.50;99.90;;;;;;5011284;28;20076;-75
2023/02/21 06:26:39;;;;;;;49.78;34.90;;;9.40;99.90;;;;;;4999437;28;20045;-75
2023/02/21 06:29:09;;;;;;;44.47;35.50;;;9.40;99.90;;;;;;5016209;28;20119;-76
2023/02/21 06:31:35;;;;;;;47.90;35.93;;;9.40;99.90;;;;;;5017787;28;20096;-75
2023/02/21 06:34:02;;;;;;;45.63;36.50;;;9.40;99.90;;;;;;5017065;28;20136;-75
2023/02/21 06:36:28;;;;;;;43.80;35.22;;;9.30;99.90;;;;;;4997904;28;20042;-75
2023/02/21 06:38:56;;;;;;;45.17;35.45;;;9.30;99.90;;;;;;4983738;28;20072;-76
2023/02/21 06:41:27;;;;;;;46.15;35.25;;;9.30;99.90;;;;;;4995013;28;20080;-75
2023/02/21 06:43:57;;;;;;;45.08;34.72;;;9.40;99.90;;;;;;5013934;28;20613;-74
2023/02/21 06:46:28;;;;;;;43.08;35.28;;;9.30;99.90;;;;;;5016062;28;20047;-74
2023/02/21 06:48:57;;;;;;;45.40;35.45;;;9.30;99.90;;;;;;5011070;28;20500;-75
2023/02/21 06:51:28;;;;;;;45.53;35.55;;;9.30;99.90;;;;;;4994535;28;20046;-74
2023/02/21 06:53:55;;;;;;;;;;;9.30;99.90;;;;;;4996387;28;20652;-74
2023/02/21 06:56:21;;;;;;;40.80;35.10;;;9.30;99.90;;;;;;5005444;28;20628;-74
2023/02/21 06:58:47;;;;;;;42.10;35.53;;;9.30;99.90;;;;;;5010157;28;20042;-74
2023/02/21 07:01:15;;;;;;;41.13;34.00;;;9.30;99.90;;;;;;4998858;28;20163;-73
2023/02/21 07:03:43;;;;;;;43.10;34.05;;;9.30;99.90;;;;;;5010170;28;20517;-73
2023/02/21 07:06:09;;;;;;;44.38;35.30;;;9.30;99.90;;;;;;4984128;28;20133;-73
2023/02/21 07:08:34;;;;;;;45.40;33.90;;;9.30;99.90;;;;;;5016612;28;20053;-74
2023/02/21 07:11:00;;;;;;;41.08;34.53;;;9.30;99.90;;;;;;5017647;28;20049;-74
2023/02/21 07:13:26;;;;;;;44.38;33.05;;;9.30;99.90;;;;;;4990243;28;20054;-74
2023/02/21 07:15:52;;;;;;;46.40;35.95;;;9.30;99.90;;;;;;5015075;28;20148;-74
2023/02/21 07:18:18;;;;;;;44.67;35.33;;;9.40;99.90;;;;;;4996834;28;20042;-74
2023/02/21 07:20:43;;;;;;;42.63;34.10;;;9.30;99.90;;;;;;5012985;28;20050;-74
2023/02/21 07:23:09;;;;;;;43.30;34.28;;;9.30;99.90;;;;;;5003028;28;20055;-74
2023/02/21 07:25:35;;;;;;;45.90;34.20;;;9.30;99.90;;;;;;5017175;28;20044;-73
2023/02/21 07:28:02;;;;;;;43.60;34.25;;;9.40;99.90;;;;;;5007610;28;20041;-73
2023/02/21 07:30:28;;;;;;;43.38;35.05;;;9.40;99.90;;;;;;5015800;28;20038;-73
2023/02/21 07:32:58;;;;;;;42.13;34.22;;;9.40;99.90;;;;;;5023821;28;20089;-74
2023/02/21 07:35:23;;;;;;;44.28;35.92;;;9.40;99.90;;;;;;5021602;28;20057;-73
2023/02/21 07:37:49;;;;;;;41.78;35.30;;;9.40;99.90;;;;;;5013746;28;20049;-73
2023/02/21 07:40:15;;;;;;;44.35;35.13;;;9.40;99.90;;;;;;5014254;28;20103;-74
2023/02/21 07:42:46;;;;;;;43.03;35.80;;;9.50;99.90;;;;;;5022568;28;20045;-74
2023/02/21 07:45:17;;;;;;;45.58;35.95;;;9.40;99.90;;;;;;4987622;28;20053;-73
2023/02/21 07:47:44;;;;;;;44.85;34.05;;;9.50;99.90;;;;;;5021069;28;20049;-73
2023/02/21 07:50:11;;;;;;;43.67;35.08;;;9.50;99.90;;;;;;5017903;28;20048;-73
2023/02/21 07:52:37;;;;;;;41.53;33.65;;;9.50;99.90;;;;;;5014310;28;20042;-73
2023/02/21 07:55:03;;;;;;;45.78;35.17;;;9.50;99.90;;;;;;4997040;28;20041;-73
2023/02/21 07:57:29;;;;;;;43.90;35.15;;;9.50;99.90;;;;;;5023858;28;20429;-74
2023/02/21 07:59:57;;;;;;;43.30;35.10;;;9.50;99.90;;;;;;5010610;28;20080;-73
2023/02/21 08:02:23;;;;;;;43.75;35.30;;;9.50;99.90;;;;;;4971698;28;20129;-73
2023/02/21 08:04:51;;;;;;;41.92;34.30;;;9.50;99.90;;;;;;5005702;28;20136;-73
2023/02/21 08:07:16;;;;;;;39.58;34.15;;;9.60;99.90;;;;;;5001392;28;20104;-73
2023/02/21 08:09:42;;;;;;;42.42;34.55;;;9.50;99.90;;;;;;4987145;28;20493;-73
2023/02/21 08:12:08;;;;;;;44.88;34.22;;;9.60;99.90;;;;;;5009999;28;20049;-74
2023/02/21 08:14:34;;;;;;;39.13;34.25;;;9.50;99.90;;;;;;5004465;28;20096;-73
2023/02/21 08:17:00;;;;;;;44.63;34.67;;;9.60;99.90;;;;;;5020410;28;20045;-73
2023/02/21 08:19:25;;;;;;;45.55;36.17;;;9.50;99.90;;;;;;4999685;28;20133;-73
2023/02/21 08:21:51;;;;;;;47.63;36.17;;;9.50;99.90;;;;;;5004999;28;20159;-73
2023/02/21 08:24:18;;;;;;;46.42;35.88;;;9.50;99.90;;;;;;5010596;28;20128;-74
2023/02/21 08:26:44;;;;;;;42.35;35.55;;;9.50;99.90;;;;;;5013780;28;20052;-74
2023/02/21 08:29:11;;;;;;;48.28;38.45;;;9.60;99.90;;;;;;5020135;28;20121;-73
2023/02/21 08:31:38;;;;;;;44.85;36.65;;;9.60;99.90;;;;;;5022117;28;20054;-74
2023/02/21 08:34:05;;;;;;;46.53;37.58;;;9.50;99.90;;;;;;5003023;28;20128;-73
2023/02/21 08:36:36;;;;;;;46.45;37.45;;;9.60;99.90;;;;;;5000013;28;20133;-73
2023/02/21 08:39:03;;;;;;;48.75;38.72;;;9.60;99.90;;;;;;5015018;28;20104;-73
2023/02/21 08:41:41;;;;;;;51.63;38.53;;;9.50;99.90;;;;;;4996749;28;20050;-73
2023/02/21 08:44:08;;;;;;;51.72;40.33;;;9.50;99.90;;;;;;4997816;28;20079;-73
2023/02/21 08:46:34;;;;;;;52.08;39.10;;;9.50;99.90;;;;;;5012932;28;20489;-73
2023/02/21 08:49:02;;;;;;;51.10;39.88;;;9.50;99.90;;;;;;5003642;28;20523;-73
2023/02/21 08:51:30;;;;;;;50.40;39.28;;;9.60;99.90;;;;;;5006356;28;20115;-73
2023/02/21 08:53:56;;;;;;;46.10;37.70;;;9.60;99.90;;;;;;5017896;28;20055;-73
2023/02/21 08:56:23;;;;;;;53.30;40.03;;;9.60;99.90;;;;;;5019624;28;20057;-73
2023/02/21 08:58:53;;;;;;;46.65;38.75;;;9.60;99.90;;;;;;5022593;28;20071;-73
2023/02/21 09:01:19;;;;;;;48.50;38.53;;;9.60;99.90;;;;;;5011632;28;20509;-73
2023/02/21 09:03:45;;;;;;;45.08;36.78;;;9.70;99.90;;;;;;4999084;28;20405;-73
2023/02/21 09:06:12;;;;;;;42.90;36.20;;;9.70;99.90;;;;;;5018157;28;20103;-73
2023/02/21 09:08:40;;;;;;;51.70;38.05;;;9.70;99.90;;;;;;5016744;28;20049;-74
2023/02/21 09:11:07;;;;;;;46.63;37.60;;;9.70;99.90;;;;;;4994032;28;20102;-73
2023/02/21 09:13:33;;;;;;;50.25;37.78;;;9.80;99.90;;;;;;5010803;28;20099;-73
2023/02/21 09:16:01;;;;;;;46.28;37.85;;;9.70;99.90;;;;;;4999672;28;20049;-74
2023/02/21 09:18:28;;;;;;;48.35;37.75;;;9.70;99.90;;;;;;4994042;28;20568;-73
2023/02/21 09:20:58;;;;;;;47.85;40.22;;;9.80;99.90;;;;;;5021334;28;20512;-73
2023/02/21 09:23:29;;;;;;;49.65;38.75;;;9.80;99.90;;;;;;5016408;28;20482;-74
2023/02/21 09:25:58;;;;;;;49.90;39.60;;;9.70;99.90;;;;;;5037569;28;20061;-73
2023/02/21 09:28:23;;;;;;;55.33;41.53;;;9.80;99.90;;;;;;4987757;28;20499;-73
2023/02/21 09:30:50;;;;;;;48.53;39.10;;;9.80;99.90;;;;;;5014572;28;20085;-74
2023/02/21 09:33:16;;;;;;;49.72;41.75;;;9.80;99.90;;;;;;5009397;28;20061;-73
2023/02/21 09:35:42;;;;;;;52.55;41.15;;;9.70;99.90;;;;;;5016661;28;20058;-73
2023/02/21 09:38:08;;;;;;;49.75;40.72;;;9.80;99.90;;;;;;5003658;28;20413;-73
2023/02/21 09:40:42;;;;;;;50.97;39.85;;;9.80;99.90;;;;;;4988010;28;20041;-74
2023/02/21 09:43:31;;;;;;;45.92;39.15;;;9.80;99.90;;;;;;5007549;28;20057;-74
2023/02/21 09:46:01;;;;;;;48.92;40.40;;;9.80;99.90;;;;;;5025046;28;20045;-74
2023/02/21 09:48:28;;;;;;;44.90;37.88;;;9.80;99.90;;;;;;5013672;28;20143;-74
2023/02/21 09:50:57;;;;;;;46.30;39.13;;;9.80;99.90;;;;;;5006506;28;20054;-73
2023/02/21 09:53:26;;;;;;;44.90;37.65;;;9.80;99.90;;;;;;5016040;28;20532;-73
2023/02/21 09:55:59;;;;;;;46.72;38.38;;;9.90;99.90;;;;;;5015502;28;20091;-73
2023/02/21 09:58:29;;;;;;;43.08;36.75;;;9.80;99.90;;;;;;5012138;28;20082;-73
2023/02/21 10:01:04;;;;;;;47.88;39.00;;;9.90;99.90;;;;;;4994308;28;20061;-73
2023/02/21 10:03:39;;;;;;;44.53;38.90;;;9.90;99.90;;;;;;4995259;28;20065;-73
2023/02/21 10:06:29;;;;;;;44.22;39.15;;;9.90;99.90;;;;;;5013849;28;20053;-72
2023/02/21 10:09:16;;;;;;;50.35;40.05;;;10.00;99.90;;;;;;5022628;28;20054;-73
2023/02/21 10:11:58;;;;;;;48.53;40.45;;;9.90;99.90;;;;;;5006574;28;20045;-73
2023/02/21 10:14:45;;;;;;;49.97;41.05;;;10.00;99.90;;;;;;5016092;28;20196;-73
2023/02/21 10:17:31;;;;;;;48.78;40.65;;;10.00;99.90;;;;;;5017717;28;20042;-73
2023/02/21 10:20:04;;;;;;;48.28;41.00;;;10.00;99.90;;;;;;5013414;28;20089;-73
2023/02/21 10:22:37;;;;;;;52.17;42.03;;;10.00;99.90;;;;;;5031372;28;20100;-73
2023/02/21 10:25:30;;;;;;;48.67;41.10;;;10.00;99.90;;;;;;5013816;28;20034;-73
2023/02/21 10:27:58;;;;;;;44.92;38.58;;;10.10;99.90;;;;;;5013734;28;20115;-73
2023/02/21 10:30:27;;;;;;;47.38;39.63;;;10.10;99.90;;;;;;5025244;28;20136;-74
2023/02/21 10:32:54;;;;;;;41.55;37.00;;;10.10;99.90;;;;;;5005690;28;20053;-73
2023/02/21 10:35:21;;;;;;;41.63;35.80;;;10.10;99.90;;;;;;4983080;28;20057;-73
2023/02/21 10:37:58;;;;;;;39.50;35.33;;;10.20;99.90;;;;;;5012311;28;20069;-74
2023/02/21 10:40:37;;;;;;;39.42;33.90;;;10.20;99.90;;;;;;5004523;28;20056;-73
2023/02/21 10:43:34;;;;;;;42.23;35.70;;;10.20;99.90;;;;;;5022765;28;20037;-73
2023/02/21 10:46:17;;;;;;;41.95;35.97;;;10.20;99.90;;;;;;5013780;28;20121;-73
2023/02/21 10:48:45;;;;;;;39.92;34.80;;;10.30;99.90;;;;;;5010300;28;20080;-73
2023/02/21 10:51:14;;;;;;;41.15;35.42;;;10.30;99.90;;;;;;5012181;28;20042;-74
2023/02/21 10:53:42;;;;;;;41.05;35.70;;;10.30;99.90;;;;;;5015103;28;20077;-74
2023/02/21 10:56:14;;;;;;;40.83;35.72;;;10.30;99.90;;;;;;5008201;28;20073;-74
2023/02/21 10:58:44;;;;;;;38.50;34.30;;;10.30;99.90;;;;;;5018607;28;20384;-74
2023/02/21 11:01:20;;;;;;;40.65;35.65;;;10.30;99.90;;;;;;5011026;28;20050;-74
2023/02/21 11:03:50;;;;;;;37.83;33.92;;;10.30;99.90;;;;;;5017260;28;20089;-74
2023/02/21 11:06:24;;;;;;;42.47;34.30;;;10.30;99.90;;;;;;5017764;28;20052;-74
2023/02/21 11:08:49;;;;;;;40.47;35.50;;;10.30;99.90;;;;;;5009353;28;20132;-74
2023/02/21 11:11:15;;;;;;;40.80;36.22;;;10.30;99.90;;;;;;5016042;28;20144;-74
2023/02/21 11:13:41;;;;;;;40.72;34.30;;;10.30;99.90;;;;;;5009883;28;20042;-74
2023/02/21 11:16:19;;;;;;;42.03;34.63;;;10.30;99.90;;;;;;4999316;28;20061;-74
2023/02/21 11:18:45;;;;;;;44.25;35.88;;;10.30;99.90;;;;;;5017927;28;20512;-74
2023/02/21 11:21:18;;;;;;;45.80;36.55;;;10.30;99.90;;;;;;5012537;28;20038;-74
2023/02/21 11:24:01;;;;;;;40.95;34.88;;;10.30;99.90;;;;;;5014359;28;20052;-74
2023/02/21 11:26:29;;;;;;;41.95;36.88;;;10.30;99.90;;;;;;5015648;28;20056;-74
2023/02/21 11:29:14;;;;;;;45.58;37.70;;;10.30;99.90;;;;;;5037329;28;20123;-74
2023/02/21 11:31:40;;;;;;;45.15;37.38;;;10.30;99.90;;;;;;5016212;28;20067;-74
2023/02/21 11:34:08;;;;;;;46.20;37.65;;;10.20;99.90;;;;;;5015342;28;20190;-74
2023/02/21 11:36:38;;;;;;;45.05;37.28;;;10.20;99.90;;;;;;5032618;28;20052;-74
2023/02/21 11:39:22;;;;;;;47.22;38.90;;;10.20;99.90;;;;;;5000630;28;20747;-74
2023/02/21 11:41:50;;;;;;;49.83;40.00;;;10.20;99.90;;;;;;5009007;28;20050;-74
2023/02/21 11:44:22;;;;;;;45.17;37.42;;;10.10;99.90;;;;;;5014243;28;20041;-74
2023/02/21 11:46:52;;;;;;;50.33;39.05;;;10.20;99.90;;;;;;5013578;28;20065;-74
2023/02/21 11:49:47;;;;;;;44.75;36.63;;;10.20;99.90;;;;;;5010529;28;20053;-74
2023/02/21 11:52:44;;;;;;;47.63;36.63;;;10.10;99.90;;;;;;5029008;28;20046;-74
2023/02/21 11:55:18;;;;;;;47.22;36.95;;;10.10;99.90;;;;;;4992278;28;20054;-73
2023/02/21 11:57:50;;;;;;;47.63;36.60;;;10.10;99.90;;;;;;5010376;28;20048;-74
2023/02/21 12:00:32;;;;;;;42.38;35.55;;;10.10;99.90;;;;;;5031034;28;20053;-73
2023/02/21 12:03:08;;;;;;;46.55;36.95;;;10.10;99.90;;;;;;5013129;28;20049;-74
2023/02/21 12:05:44;;;;;;;43.35;37.05;;;10.10;99.90;;;;;;5003754;28;20067;-74
2023/02/21 12:08:45;;;;;;;46.22;38.90;;;10.10;99.90;;;;;;5012243;28;20496;-73
2023/02/21 12:11:49;;;;;;;53.22;41.78;;;10.10;99.90;;;;;;5020655;28;20052;-73
2023/02/21 12:14:42;;;;;;;58.85;43.88;;;10.10;99.90;;;;;;5019501;28;20075;-73
2023/02/21 12:17:14;;;;;;;54.58;42.53;;;10.10;99.90;;;;;;5024358;28;20139;-73
2023/02/21 12:19:58;;;;;;;54.53;43.63;;;10.10;99.90;;;;;;5005304;28;20150;-72
2023/02/21 12:22:43;;;;;;;54.33;41.95;;;10.10;99.90;;;;;;5026826;28;20661;-73
2023/02/21 12:25:28;;;;;;;56.03;44.67;;;10.10;99.90;;;;;;5016532;28;20496;-74
2023/02/21 12:28:18;;;;;;;52.08;42.30;;;10.10;99.90;;;;;;5012487;28;20061;-73
2023/02/21 12:31:22;;;;;;;55.42;44.13;;;10.10;99.90;;;;;;5011115;28;20046;-73
2023/02/21 12:34:03;;;;;;;59.50;44.80;;;10.10;99.90;;;;;;4991742;28;20412;-73
2023/02/21 12:36:35;;;;;;;61.25;45.10;;;10.10;99.90;;;;;;5018063;28;20063;-73
2023/02/21 12:39:38;;;;;;;66.30;47.13;;;10.10;99.90;;;;;;5016863;28;20077;-73
2023/02/21 12:42:30;;;;;;;60.40;46.17;;;10.10;99.90;;;;;;4986452;28;20059;-73
2023/02/21 12:45:30;;;;;;;60.28;45.50;;;10.10;99.90;;;;;;5033843;28;20069;-73
2023/02/21 12:48:06;;;;;;;56.30;42.30;;;10.10;99.90;;;;;;5013578;28;20045;-73
2023/02/21 12:50:39;;;;;;;62.42;45.17;;;10.10;99.90;;;;;;5018264;28;20053;-73
2023/02/21 12:53:21;;;;;;;60.53;44.50;;;10.00;99.90;;;;;;5016843;28;20052;-74
2023/02/21 12:56:13;;;;;;;65.00;45.92;;;10.10;99.90;;;;;;5009880;28;20053;-73
2023/02/21 12:58:48;;;;;;;58.03;43.80;;;10.10;99.90;;;;;;5018964;28;20060;-73
2023/02/21 13:01:29;;;;;;;61.03;45.95;;;10.00;99.90;;;;;;5018510;28;20057;-73
2023/02/21 13:04:14;;;;;;;63.28;45.60;;;10.00;99.90;;;;;;4993920;28;20053;-73
2023/02/21 13:06:46;;;;;;;62.45;47.28;;;10.00;99.90;;;;;;5025814;28;20378;-73
2023/02/21 13:09:25;;;;;;;64.40;48.47;;;10.00;99.90;;;;;;5012599;28;20057;-73
2023/02/21 13:12:31;;;;;;;64.60;47.47;;;10.00;99.90;;;;;;5014574;28;20054;-74
2023/02/21 13:15:14;;;;;;;63.40;46.63;;;10.00;99.90;;;;;;5006824;28;20059;-73
2023/02/21 13:17:41;;;;;;;72.43;51.60;;;10.00;99.90;;;;;;5015336;28;20506;-73
2023/02/21 13:20:16;;;;;;;77.07;52.55;;;9.90;99.90;;;;;;5010880;28;20046;-73
2023/02/21 13:22:46;;;;;;;73.50;50.63;;;10.00;99.90;;;;;;5020621;28;20089;-73
2023/02/21 13:25:31;;;;;;;84.55;54.83;;;9.90;99.90;;;;;;4997975;28;20155;-73
2023/02/21 13:28:27;;;;;;;76.95;53.15;;;9.90;99.90;;;;;;5018317;28;20065;-73
2023/02/21 13:30:58;;;;;;;67.68;48.10;;;9.90;99.90;;;;;;5011028;28;20064;-73
2023/02/21 13:33:37;;;;;;;69.55;48.58;;;9.90;99.90;;;;;;5009972;28;20062;-73
2023/02/21 13:36:45;;;;;;;69.70;47.58;;;10.00;99.90;;;;;;5012900;28;20077;-74
2023/02/21 13:39:36;;;;;;;67.43;47.47;;;10.00;99.90;;;;;;5008245;28;20059;-74
2023/02/21 13:42:23;;;;;;;73.90;48.53;;;9.90;99.90;;;;;;5019457;28;20058;-73
2023/02/21 13:45:12;;;;;;;65.38;46.58;;;9.90;99.90;;;;;;5007523;28;20062;-74
2023/02/21 13:48:00;;;;;;;78.43;50.22;;;9.90;99.90;;;;;;5010885;28;20052;-74
2023/02/21 13:50:43;;;;;;;73.43;49.65;;;9.90;99.90;;;;;;5007348;28;20129;-74
2023/02/21 13:53:21;;;;;;;69.05;47.08;;;9.90;99.90;;;;;;5015436;28;20033;-74
2023/02/21 13:56:05;;;;;;;71.25;48.90;;;10.00;99.90;;;;;;5030602;28;20136;-74
2023/02/21 13:58:37;;;;;;;67.50;47.28;;;10.00;99.90;;;;;;5018570;28;20046;-74
2023/02/21 14:01:27;;;;;;;68.80;47.22;;;10.00;99.90;;;;;;4992263;28;20540;-73
2023/02/21 14:03:56;;;;;;;71.18;48.55;;;10.00;99.90;;;;;;5018502;28;20081;-74
2023/02/21 14:06:55;;;;;;;73.68;50.30;;;10.00;99.90;;;;;;5004953;28;20088;-74
2023/02/21 14:09:21;;;;;;;69.47;48.50;;;10.00;99.90;;;;;;5001742;28;20081;-74
2023/02/21 14:11:50;;;;;;;69.43;48.90;;;9.90;99.90;;;;;;5018615;28;20136;-74
2023/02/21 14:14:30;;;;;;;68.57;48.70;;;9.90;99.90;;;;;;5011225;28;20128;-74
2023/02/21 14:17:02;;;;;;;73.28;49.47;;;9.90;99.90;;;;;;5014921;28;20041;-74
2023/02/21 14:19:49;;;;;;;71.93;48.67;;;9.90;99.90;;;;;;4999426;28;20049;-74
2023/02/21 14:22:27;;;;;;;82.30;52.25;;;9.90;99.90;;;;;;4999548;28;20110;-74
2023/02/21 14:25:05;;;;;;;75.53;50.60;;;9.90;99.90;;;;;;5012495;28;20061;-74
2023/02/21 14:27:34;;;;;;;72.43;50.55;;;9.90;99.90;;;;;;5012836;28;20056;-73
2023/02/21 14:30:09;;;;;;;71.45;50.78;;;9.90;99.90;;;;;;5017154;28;20487;-74
2023/02/21 14:32:45;;;;;;;78.38;51.97;;;9.90;99.90;;;;;;5032383;28;20118;-73
2023/02/21 14:35:33;;;;;;;77.00;50.95;;;9.90;99.90;;;;;;5021215;28;20057;-74
2023/02/21 14:38:03;;;;;;;77.30;51.03;;;9.90;99.90;;;;;;5019995;28;20121;-74
2023/02/21 14:40:31;;;;;;;72.03;50.58;;;9.90;99.90;;;;;;5023485;28;20053;-73
2023/02/21 14:43:18;;;;;;;72.80;50.08;;;9.80;99.90;;;;;;5022161;28;20061;-73
2023/02/21 14:46:31;;;;;;;72.63;51.00;;;9.90;99.90;;;;;;5030635;28;20080;-73
2023/02/21 14:49:38;;;;;;;73.28;50.75;;;9.80;99.90;;;;;;4979842;28;20049;-73
2023/02/21 14:52:38;;;;;;;72.07;51.85;;;9.80;99.90;;;;;;5018367;28;20052;-73
2023/02/21 14:55:28;;;;;;;75.45;51.72;;;9.80;99.90;;;;;;5020749;28;20057;-73
2023/02/21 14:58:03;;;;;;;;;;;9.80;99.90;;;;;;5012042;28;20647;-73
2023/02/21 15:00:49;;;;;;;70.57;50.72;;;9.80;99.90;;;;;;5030646;28;19925;-73
2023/02/21 15:03:27;;;;;;;76.22;53.17;;;9.80;99.90;;;;;;5013707;28;20045;-73
2023/02/21 15:06:02;;;;;;;71.40;50.53;;;9.80;99.90;;;;;;5015956;28;20059;-73
2023/02/21 15:08:28;;;;;;;73.80;52.53;;;9.80;99.90;;;;;;5014480;28;20534;-73
2023/02/21 15:10:59;;;;;;;83.45;54.85;;;9.80;99.90;;;;;;5018047;28;20057;-73
2023/02/21 15:13:33;;;;;;;77.35;52.55;;;9.80;99.90;;;;;;5016659;28;20108;-73
2023/02/21 15:16:01;;;;;;;81.05;54.45;;;9.80;99.90;;;;;;4996580;28;20061;-73
2023/02/21 15:18:30;;;;;;;83.00;54.75;;;9.80;99.90;;;;;;5018160;28;20152;-73
2023/02/21 15:21:11;;;;;;;84.18;53.55;;;9.80;99.90;;;;;;5001922;28;20050;-73
2023/02/21 15:23:45;;;;;;;83.45;55.08;;;9.80;99.90;;;;;;5019901;28;20528;-73